createdAt,value
2019-04-05T00:02:32.004Z,101802.58
2019-04-05T00:05:38.305Z,101811.33
2019-04-05T00:08:44.881Z,101808.30
2019-04-05T00:11:51.334Z,101813.30
2019-04-05T00:14:57.810Z,101823.13
2019-04-05T00:18:04.243Z,101821.61
2019-04-05T00:21:10.612Z,101818.28
2019-04-05T00:24:17.031Z,101819.56
2019-04-05T00:27:23.570Z,101818.27
2019-04-05T00:30:29.959Z,101820.93
2019-04-05T00:33:36.261Z,101823.53
2019-04-05T00:36:42.618Z,101824.83
2019-04-05T00:39:49.265Z,101826.00
2019-04-05T00:42:55.615Z,101825.17
2019-04-05T00:46:01.945Z,101827.89
2019-04-05T00:49:08.282Z,101833.50
2019-04-05T00:52:15.319Z,101833.59
2019-04-05T00:55:21.607Z,101828.89
2019-04-05T00:58:28.152Z,101828.89
2019-04-05T01:01:34.628Z,101844.10
2019-04-05T01:04:42.132Z,101845.95
2019-04-05T01:07:48.537Z,101851.66
2019-04-05T01:10:54.923Z,101847.03
2019-04-05T01:14:02.722Z,101848.88
2019-04-05T01:17:09.196Z,101848.72
2019-04-05T01:20:15.660Z,101841.05
2019-04-05T01:23:22.131Z,101853.41
2019-04-05T01:26:28.572Z,101786.56
2019-04-05T01:29:34.984Z,101852.66
2019-04-05T01:32:41.408Z,101846.84
2019-04-05T01:35:47.872Z,101849.88
2019-04-05T01:38:54.151Z,101855.25
2019-04-05T01:42:00.682Z,101855.25
2019-04-05T01:45:07.690Z,101856.25
2019-04-05T01:48:14.053Z,101857.90
2019-04-05T01:51:20.456Z,101857.84
2019-04-05T01:54:29.148Z,101853.45
2019-04-05T01:57:35.464Z,101867.41
2019-04-05T02:00:41.866Z,101858.61
2019-04-05T02:03:48.263Z,101860.29
2019-04-05T02:06:55.075Z,101865.66
2019-04-05T02:10:01.423Z,101862.33
2019-04-05T02:13:07.854Z,101866.05
2019-04-05T02:16:14.198Z,101875.96
2019-04-05T02:19:20.677Z,101872.27
2019-04-05T02:22:27.285Z,101874.87
2019-04-05T02:25:33.630Z,101879.32
2019-04-05T02:28:39.911Z,101879.16
2019-04-05T02:31:46.702Z,101870.85
2019-04-05T02:34:53.085Z,101868.45
2019-04-05T02:37:59.398Z,101865.05
2019-04-05T02:41:05.842Z,101871.69
2019-04-05T02:44:12.894Z,101876.47
2019-04-05T02:47:19.710Z,101871.36
2019-04-05T02:50:28.022Z,101880.73
2019-04-05T02:53:36.112Z,101876.24
2019-04-05T02:56:44.219Z,101876.08
2019-04-05T02:59:50.978Z,101878.95
2019-04-05T03:02:57.748Z,101882.88
2019-04-05T03:06:04.581Z,101881.03
2019-04-05T03:09:11.576Z,101886.77
2019-04-05T03:12:19.213Z,101889.74
2019-04-05T03:15:25.923Z,101898.27
2019-04-05T03:18:32.580Z,101899.70
2019-04-05T03:21:42.381Z,101894.13
2019-04-05T03:24:49.428Z,101895.89
2019-04-05T03:27:55.888Z,101887.69
2019-04-05T03:31:02.647Z,101890.70
2019-04-05T03:34:09.777Z,101903.57
2019-04-05T03:37:16.769Z,101898.51
2019-04-05T03:40:23.343Z,101903.20
2019-04-05T03:43:29.685Z,101906.48
2019-04-05T03:46:36.247Z,101908.31
2019-04-05T03:49:42.676Z,101925.84
2019-04-05T03:52:49.006Z,101923.16
2019-04-05T03:55:56.834Z,101926.78
2019-04-05T03:59:04.225Z,101938.05
2019-04-05T04:02:10.495Z,101938.05
2019-04-05T04:05:16.932Z,101942.52
2019-04-05T04:08:23.630Z,101945.75
2019-04-05T04:11:30.917Z,101945.75
2019-04-05T04:14:37.324Z,101963.39
2019-04-05T04:17:43.956Z,101955.38
2019-04-05T04:20:53.780Z,101961.48
2019-04-05T04:24:00.461Z,101964.67
2019-04-05T04:27:06.934Z,101958.78
2019-04-05T04:30:13.244Z,101957.29
2019-04-05T04:33:19.606Z,101975.47
2019-04-05T04:36:26.243Z,101969.36
2019-04-05T04:39:32.523Z,101969.00
2019-04-05T04:42:38.896Z,101976.75
2019-04-05T04:45:45.262Z,101977.67
2019-04-05T04:48:51.692Z,101985.48
2019-04-05T04:51:57.952Z,101984.83
2019-04-05T04:55:04.675Z,101990.38
2019-04-05T04:58:10.988Z,101992.80
2019-04-05T05:01:17.646Z,101993.72
2019-04-05T05:04:24.322Z,101992.06
2019-04-05T05:07:30.655Z,101999.76
2019-04-05T05:10:37.183Z,102003.71
2019-04-05T05:13:43.747Z,102008.03
2019-04-05T05:16:51.184Z,102013.16
2019-04-05T05:19:57.599Z,102028.36
2019-04-05T05:23:04.027Z,101957.78
2019-04-05T05:26:10.656Z,102024.58
2019-04-05T05:29:18.199Z,102042.84
2019-04-05T05:32:25.231Z,102039.16
2019-04-05T05:35:31.761Z,102038.06
2019-04-05T05:38:38.731Z,102044.90
2019-04-05T05:41:45.173Z,102054.21
2019-04-05T05:44:53.652Z,102048.38
2019-04-05T05:48:04.441Z,102057.67
2019-04-05T05:51:10.944Z,102050.13
2019-04-05T05:54:17.451Z,102059.66
2019-04-05T05:57:23.922Z,102051.98
2019-04-05T06:00:31.025Z,102060.91
2019-04-05T06:03:38.039Z,102054.63
2019-04-05T06:06:44.505Z,102063.30
2019-04-05T06:09:51.007Z,102062.23
2019-04-05T06:12:58.796Z,102060.39
2019-04-05T06:16:05.289Z,102069.24
2019-04-05T06:19:11.728Z,102070.02
2019-04-05T06:22:18.182Z,102070.48
2019-04-05T06:25:24.843Z,102072.89
2019-04-05T06:28:31.323Z,102074.73
2019-04-05T06:31:37.953Z,102086.52
2019-04-05T06:34:44.548Z,102086.52
2019-04-05T06:37:51.068Z,102082.56
2019-04-05T06:40:57.503Z,102089.84
2019-04-05T06:44:03.916Z,102086.74
2019-04-05T06:47:10.462Z,102088.69
2019-04-05T06:50:16.810Z,102095.78
2019-04-05T06:53:23.256Z,102093.05
2019-04-05T06:56:29.637Z,102096.28
2019-04-05T06:59:36.009Z,102084.17
2019-04-05T07:02:42.373Z,102097.46
2019-04-05T07:05:51.029Z,102100.23
2019-04-05T07:08:57.509Z,102101.88
2019-04-05T07:12:05.406Z,102101.04
2019-04-05T07:15:11.767Z,102109.55
2019-04-05T07:18:31.554Z,102100.83
2019-04-05T07:21:26.363Z,102101.21
2019-04-05T07:24:32.757Z,102097.89
2019-04-05T07:27:39.093Z,102097.94
2019-04-05T07:30:45.604Z,102099.41
2019-04-05T07:33:52.746Z,102101.86
2019-04-05T07:36:59.177Z,102102.45
2019-04-05T07:40:06.386Z,102046.20
2019-04-05T07:43:12.951Z,102102.84
2019-04-05T07:46:19.307Z,102110.66
2019-04-05T07:49:25.688Z,102109.36
2019-04-05T07:52:32.063Z,102113.14
2019-04-05T07:55:38.693Z,102113.37
2019-04-05T07:58:45.045Z,102115.95
2019-04-05T08:01:53.849Z,102106.72
2019-04-05T08:05:00.261Z,102110.19
2019-04-05T08:08:09.246Z,102112.36
2019-04-05T08:11:16.448Z,102106.28
2019-04-05T08:14:23.717Z,102111.87
2019-04-05T08:17:30.017Z,102119.28
2019-04-05T08:20:36.582Z,102119.91
2019-04-05T08:23:42.961Z,102110.00
2019-04-05T08:26:49.524Z,102107.84
2019-04-05T08:29:55.872Z,102107.58
2019-04-05T08:33:02.298Z,102105.48
2019-04-05T08:36:08.856Z,102098.37
2019-04-05T08:39:15.624Z,102107.86
2019-04-05T08:42:21.990Z,102104.28
2019-04-05T08:45:28.558Z,102103.14
2019-04-05T08:48:34.921Z,102102.73
2019-04-05T08:51:41.357Z,102105.19
2019-04-05T08:54:47.642Z,102087.84
2019-04-05T08:57:54.081Z,102034.58
2019-04-05T09:01:01.444Z,102106.07
2019-04-05T09:04:07.998Z,102100.08
2019-04-05T09:07:14.472Z,102101.16
2019-04-05T09:10:21.395Z,102101.16
2019-04-05T09:13:27.684Z,102099.45
2019-04-05T09:16:34.226Z,102090.09
2019-04-05T09:19:41.717Z,102090.09
2019-04-05T09:22:48.124Z,102094.39
2019-04-05T09:25:54.483Z,102093.33
2019-04-05T09:29:01.000Z,102099.26
2019-04-05T09:32:07.428Z,102090.43
2019-04-05T09:35:13.992Z,102090.43
2019-04-05T09:38:20.609Z,102097.63
2019-04-05T09:41:27.018Z,102091.16
2019-04-05T09:44:33.517Z,102094.55
2019-04-05T09:47:39.935Z,102096.84
2019-04-05T09:50:46.295Z,102100.63
2019-04-05T09:53:52.742Z,102096.23
2019-04-05T09:56:59.090Z,102096.62
2019-04-05T10:00:09.423Z,102103.92
2019-04-05T10:03:21.188Z,102084.50
2019-04-05T10:06:37.802Z,102084.50
2019-04-05T10:09:44.257Z,102089.20
2019-04-05T10:12:51.783Z,102092.03
2019-04-05T10:15:58.169Z,102100.99
2019-04-05T10:19:04.790Z,102098.94
2019-04-05T10:22:11.258Z,102097.70
2019-04-05T10:25:17.864Z,102092.69
2019-04-05T10:28:24.328Z,102103.05
2019-04-05T10:31:30.732Z,102109.16
2019-04-05T10:34:39.437Z,102100.75
2019-04-05T10:37:45.998Z,102104.33
2019-04-05T10:40:52.599Z,102099.50
2019-04-05T10:43:59.408Z,102089.77
2019-04-05T10:47:05.910Z,102105.38
2019-04-05T10:50:13.827Z,102101.39
2019-04-05T10:53:20.268Z,102101.08
2019-04-05T10:56:26.967Z,102100.86
2019-04-05T10:59:33.439Z,102097.53
2019-04-05T11:02:40.331Z,102089.09
2019-04-05T11:05:49.309Z,102089.09
2019-04-05T11:08:55.170Z,102109.81
2019-04-05T11:12:01.530Z,102104.68
2019-04-05T11:15:10.174Z,102106.16
2019-04-05T11:18:16.645Z,102111.16
2019-04-05T11:21:24.163Z,102114.85
2019-04-05T11:24:30.615Z,102124.17
2019-04-05T11:27:38.425Z,102124.91
2019-04-05T11:30:46.279Z,102135.64
2019-04-05T11:33:52.793Z,102135.31
2019-04-05T11:36:59.127Z,102130.59
2019-04-05T11:40:06.572Z,102128.84
2019-04-05T11:43:13.307Z,102138.69
2019-04-05T11:46:20.048Z,102138.78
2019-04-05T11:49:26.470Z,102127.94
2019-04-05T11:52:33.062Z,102137.20
2019-04-05T11:55:39.628Z,102135.61
2019-04-05T11:58:48.943Z,102126.21
2019-04-05T12:02:06.337Z,102126.21
2019-04-05T12:05:14.856Z,102135.94
2019-04-05T12:08:21.221Z,102136.00
2019-04-05T12:11:27.728Z,102144.20
2019-04-05T12:14:36.375Z,102144.20
2019-04-05T12:17:44.518Z,102147.31
2019-04-05T12:20:59.580Z,102139.05
2019-04-05T12:24:02.292Z,102138.02
2019-04-05T12:27:07.488Z,102129.84
2019-04-05T12:30:17.485Z,102126.06
2019-04-05T12:33:23.947Z,102121.03
2019-04-05T12:36:30.450Z,102120.92
2019-04-05T12:39:37.325Z,102119.75
2019-04-05T12:42:44.039Z,102118.75
2019-04-05T12:45:50.696Z,102115.49
2019-04-05T12:48:57.138Z,102109.03
2019-04-05T12:52:03.789Z,102121.37
2019-04-05T12:55:10.608Z,102109.53
2019-04-05T12:58:17.064Z,102110.66
2019-04-05T13:01:23.578Z,102126.50
2019-04-05T13:04:30.003Z,102119.78
2019-04-05T13:07:36.576Z,102110.67
2019-04-05T13:10:43.031Z,102119.97
2019-04-05T13:13:49.554Z,102111.75
2019-04-05T13:16:55.963Z,102120.83
2019-04-05T13:20:02.927Z,102117.30
2019-04-05T13:23:09.514Z,102122.34
2019-04-05T13:26:15.976Z,102130.50
2019-04-05T13:29:22.353Z,102122.20
2019-04-05T13:32:29.897Z,102127.91
2019-04-05T13:35:36.301Z,102124.48
2019-04-05T13:38:54.354Z,102123.38
2019-04-05T13:41:50.920Z,102127.45
2019-04-05T13:44:58.316Z,102131.91
2019-04-05T13:48:08.589Z,102130.06
2019-04-05T13:51:13.160Z,102139.71
2019-04-05T13:54:19.575Z,102133.41
2019-04-05T13:57:28.437Z,102139.39
2019-04-05T14:00:34.347Z,102138.92
2019-04-05T14:03:40.979Z,102147.91
2019-04-05T14:06:47.434Z,102138.24
2019-04-05T14:09:54.062Z,102138.24
2019-04-05T14:13:00.465Z,102142.35
2019-04-05T14:16:06.930Z,102128.97
2019-04-05T14:19:13.364Z,102155.42
2019-04-05T14:22:22.492Z,102160.11
2019-04-05T14:25:30.275Z,102144.64
2019-04-05T14:28:36.987Z,102160.23
2019-04-05T14:31:43.441Z,102149.89
2019-04-05T14:34:53.883Z,102153.49
2019-04-05T14:37:58.229Z,102156.11
2019-04-05T14:41:04.732Z,102148.92
2019-04-05T14:44:14.481Z,102151.61
2019-04-05T14:47:19.951Z,102152.48
2019-04-05T14:50:28.320Z,102151.80
2019-04-05T14:53:34.882Z,102157.59
2019-04-05T14:56:41.409Z,102148.34
2019-04-05T14:59:49.180Z,102156.39
2019-04-05T15:02:55.557Z,102155.83
2019-04-05T15:06:01.977Z,102154.86
2019-04-05T15:09:08.521Z,102161.27
2019-04-05T15:12:14.999Z,102156.81
2019-04-05T15:15:21.623Z,102156.66
2019-04-05T15:18:30.904Z,102156.13
2019-04-05T15:21:39.045Z,102157.94
2019-04-05T15:24:48.145Z,102164.67
2019-04-05T15:27:55.581Z,102169.42
2019-04-05T15:31:02.078Z,102167.98
2019-04-05T15:34:08.497Z,102168.38
2019-04-05T15:37:16.249Z,102165.62
2019-04-05T15:40:22.837Z,102172.73
2019-04-05T15:43:29.726Z,102170.28
2019-04-05T15:46:38.095Z,102172.38
2019-04-05T15:49:44.829Z,102175.89
2019-04-05T15:52:51.471Z,101973.31
2019-04-05T15:56:03.887Z,101885.17
2019-04-05T15:59:10.218Z,102183.05
2019-04-05T16:02:18.227Z,102182.44
2019-04-05T16:05:25.926Z,102178.26
2019-04-05T16:08:32.310Z,102188.56
2019-04-05T16:11:41.750Z,102189.91
2019-04-05T16:14:48.255Z,102174.59
2019-04-05T16:17:54.608Z,102186.39
2019-04-05T16:21:01.058Z,102187.55
2019-04-05T16:24:07.506Z,102184.36
2019-04-05T16:27:15.847Z,102184.90
2019-04-05T16:30:25.262Z,102194.70
2019-04-05T16:33:34.547Z,102194.97
2019-04-05T16:36:40.968Z,102203.52
2019-04-05T16:39:47.538Z,102202.25
2019-04-05T16:43:02.423Z,102196.16
2019-04-05T16:46:02.636Z,102200.58
2019-04-05T16:49:09.039Z,102208.05
2019-04-05T16:52:15.721Z,102199.22
2019-04-05T16:55:24.139Z,102209.47
2019-04-05T16:58:30.201Z,102199.77
2019-04-05T17:01:36.631Z,102212.20
2019-04-05T17:04:43.065Z,102204.52
2019-04-05T17:07:49.526Z,102208.77
2019-04-05T17:10:55.855Z,102207.34
2019-04-05T17:14:02.468Z,102209.73
2019-04-05T17:17:08.903Z,102213.48
2019-04-05T17:20:15.384Z,102219.23
2019-04-05T17:23:21.779Z,102219.86
2019-04-05T17:26:28.211Z,102221.19
2019-04-05T17:29:36.794Z,102202.75
2019-04-05T17:32:43.133Z,102220.55
2019-04-05T17:35:49.605Z,102227.63
2019-04-05T17:39:01.729Z,102222.39
2019-04-05T17:42:10.363Z,102223.83
2019-04-05T17:45:16.870Z,102234.41
2019-04-05T17:48:23.937Z,102231.58
2019-04-05T17:51:30.291Z,102242.44
2019-04-05T17:54:37.995Z,102245.05
2019-04-05T17:57:44.764Z,102250.11
2019-04-05T18:00:53.051Z,102250.11
2019-04-05T18:03:59.449Z,102252.08
2019-04-05T18:07:06.025Z,102250.67
2019-04-05T18:10:12.578Z,102257.52
2019-04-05T18:13:19.025Z,102256.92
2019-04-05T18:16:29.135Z,102264.41
2019-04-05T18:19:35.640Z,102261.92
2019-04-05T18:22:42.099Z,102270.54
2019-04-05T18:25:48.564Z,102261.63
2019-04-05T18:28:54.920Z,102266.78
2019-04-05T18:32:01.669Z,102263.35
2019-04-05T18:35:09.375Z,102263.35
2019-04-05T18:38:15.987Z,102274.19
2019-04-05T18:41:22.506Z,102269.01
2019-04-05T18:44:30.417Z,102273.98
2019-04-05T18:47:41.142Z,102275.61
2019-04-05T18:50:49.476Z,102269.59
2019-04-05T18:53:55.901Z,102281.01
2019-04-05T18:57:17.769Z,102280.52
2019-04-05T19:00:24.562Z,102272.95
2019-04-05T19:03:36.826Z,102280.52
2019-04-05T19:06:43.371Z,102261.98
2019-04-05T19:09:50.951Z,102261.98
2019-04-05T19:12:59.393Z,102276.30
2019-04-05T19:16:05.692Z,102268.05
2019-04-05T19:19:12.031Z,102272.39
2019-04-05T19:22:18.866Z,102270.97
2019-04-05T19:25:25.238Z,102280.16
2019-04-05T19:28:32.237Z,102275.44
2019-04-05T19:50:30.707Z,102290.75
2019-04-05T19:53:39.205Z,102286.09
2019-04-05T19:56:47.710Z,102292.44
2019-04-05T19:59:54.219Z,102293.72
2019-04-05T20:03:01.859Z,102286.91
2019-04-05T20:06:08.490Z,102283.52
2019-04-05T20:09:15.847Z,102288.84
2019-04-05T20:12:22.374Z,102289.62
2019-04-05T20:15:32.007Z,102288.02
2019-04-05T20:18:38.646Z,102290.56
2019-04-05T20:21:45.102Z,102290.28
2019-04-05T20:24:51.604Z,102290.96
2019-04-05T20:27:57.970Z,102293.92
2019-04-05T20:31:04.543Z,102292.00
2019-04-05T20:34:10.973Z,102291.04
2019-04-05T20:37:17.950Z,102302.98
2019-04-05T20:40:24.306Z,102290.02
2019-04-05T20:43:30.680Z,102227.09
2019-04-05T20:46:37.115Z,102282.45
2019-04-05T20:49:43.519Z,102288.16
2019-04-05T20:52:49.970Z,102293.78
2019-04-05T20:55:56.566Z,102291.75
2019-04-05T20:59:03.002Z,102284.94
2019-04-05T21:02:09.429Z,102289.09
2019-04-05T21:05:24.761Z,102291.20
2019-04-05T21:08:23.936Z,102252.23
2019-04-05T21:11:30.472Z,102294.13
2019-04-05T21:14:36.874Z,102291.35
2019-04-05T21:17:43.420Z,102297.48
2019-04-05T21:20:49.702Z,102286.95
2019-04-05T21:23:55.995Z,102298.97
2019-04-05T21:27:02.442Z,102294.20
2019-04-05T21:30:08.944Z,102286.88
2019-04-05T21:33:15.606Z,102295.77
2019-04-05T21:36:21.890Z,102290.66
2019-04-05T21:39:28.783Z,102292.20
2019-04-05T21:42:35.154Z,102293.62
2019-04-05T21:45:41.633Z,102305.58
2019-04-05T21:48:48.003Z,102303.95
2019-04-05T21:51:54.574Z,102304.74
2019-04-05T21:55:00.903Z,102306.59
2019-04-05T21:58:08.504Z,102306.45
2019-04-05T22:01:14.852Z,102310.93
2019-04-05T22:04:21.802Z,102304.23
2019-04-05T22:07:28.363Z,102312.19
2019-04-05T22:10:35.036Z,102309.98
2019-04-05T22:13:43.834Z,102301.75
2019-04-05T22:16:50.360Z,102299.60
2019-04-05T22:19:56.622Z,102298.75
2019-04-05T22:23:03.063Z,102297.39
2019-04-05T22:26:10.120Z,102300.36
2019-04-05T22:29:16.725Z,102295.30
2019-04-05T22:32:23.107Z,102295.83
2019-04-05T22:35:29.497Z,102300.70
2019-04-05T22:38:35.853Z,102295.30
2019-04-05T22:41:42.880Z,102292.53
2019-04-05T22:44:49.302Z,102297.98
2019-04-05T22:47:55.969Z,102293.77
2019-04-05T22:51:02.392Z,102293.50
2019-04-05T22:54:08.928Z,102295.77
2019-04-05T22:57:15.281Z,102287.14
2019-04-05T23:00:22.034Z,102291.19
2019-04-05T23:03:28.522Z,102290.64
2019-04-05T23:06:35.522Z,102295.29
2019-04-05T23:09:42.031Z,102289.12
2019-04-05T23:12:48.471Z,102288.91
2019-04-05T23:15:54.740Z,102280.66
2019-04-05T23:19:01.598Z,102279.36
2019-04-05T23:22:07.877Z,102285.23
2019-04-05T23:25:21.810Z,102283.95
2019-04-05T23:28:22.353Z,102281.67
2019-04-05T23:31:28.827Z,102271.84
2019-04-05T23:34:35.121Z,102277.41
2019-04-05T23:37:41.904Z,102269.41
2019-04-05T23:40:48.268Z,102274.31
2019-04-05T23:43:54.877Z,102265.42
2019-04-05T23:47:01.303Z,102277.52
2019-04-05T23:50:07.671Z,102282.55
2019-04-05T23:53:13.975Z,102278.66
2019-04-05T23:56:20.609Z,102271.31
2019-04-05T23:59:26.934Z,102278.91
